createdAt,value
2023-02-17T05:34:21.413Z,98905.75
2023-02-17T05:39:23.377Z,98889.00
2023-02-17T05:44:25.070Z,98885.66
2023-02-17T05:49:29.170Z,98866.84
2023-02-17T05:54:30.938Z,98877.03
2023-02-17T05:59:32.599Z,98893.38
2023-02-17T06:04:34.275Z,98903.94
2023-02-17T06:09:35.928Z,98897.72
2023-02-17T06:14:37.526Z,98882.28
2023-02-17T06:19:39.144Z,98876.97
2023-02-17T06:24:40.758Z,98861.94
2023-02-17T06:29:42.774Z,98854.34
2023-02-17T06:34:44.482Z,98892.25
2023-02-17T06:39:46.164Z,98892.72
2023-02-17T06:44:48.348Z,98880.31
2023-02-17T06:49:50.021Z,98867.69
2023-02-17T06:54:51.630Z,98878.25
2023-02-17T06:59:53.348Z,98872.69
2023-02-17T07:04:55.061Z,98876.81
2023-02-17T07:09:56.692Z,98860.78
2023-02-17T07:14:58.383Z,98862.84
2023-02-17T07:20:00.189Z,98858.69
2023-02-17T07:25:01.939Z,98850.19
2023-02-17T07:30:04.534Z,98823.56
2023-02-17T07:35:06.820Z,98801.31
2023-02-17T07:40:08.867Z,98831.00
2023-02-17T07:45:10.486Z,98820.69
2023-02-17T07:50:12.267Z,98807.22
2023-02-17T07:55:13.908Z,98846.53
2023-02-17T08:00:16.248Z,98858.78
2023-02-17T08:05:17.912Z,98863.50
2023-02-17T08:10:38.176Z,98842.31
2023-02-17T08:15:39.877Z,98864.81
2023-02-17T08:20:41.552Z,98863.09
2023-02-17T08:25:43.168Z,98822.22
2023-02-17T08:30:44.897Z,98838.97
2023-02-17T08:35:46.886Z,98843.34
2023-02-17T08:40:48.523Z,98861.22
2023-02-17T08:45:50.243Z,98857.84
2023-02-17T08:50:52.145Z,98849.47
2023-02-17T08:55:53.744Z,98855.69
2023-02-17T09:00:55.470Z,98822.25
2023-02-17T09:05:58.267Z,98864.75
2023-02-17T09:11:00.297Z,98832.22
2023-02-17T09:16:02.879Z,98860.09
2023-02-17T09:21:10.747Z,98869.72
2023-02-17T09:26:14.888Z,98877.72
2023-02-17T09:31:24.408Z,98872.72
2023-02-17T09:36:28.812Z,98863.59
2023-02-17T09:41:36.474Z,98884.72
2023-02-17T09:47:00.953Z,98894.25
2023-02-17T09:52:27.751Z,98887.97
2023-02-17T09:57:41.897Z,98889.69
2023-02-17T10:02:56.127Z,98895.59
2023-02-17T10:08:31.171Z,98887.22
2023-02-17T10:13:42.521Z,98899.69
2023-02-17T10:18:50.281Z,98889.50
2023-02-17T10:23:52.472Z,98908.94
2023-02-17T10:28:59.944Z,98906.44
2023-02-17T10:34:04.759Z,98888.66
2023-02-17T10:39:15.148Z,98884.09
2023-02-17T10:44:21.994Z,98854.56
2023-02-17T10:49:39.649Z,98872.84
2023-02-17T10:54:54.441Z,98856.16
2023-02-17T10:59:57.043Z,98860.06
2023-02-17T11:05:00.066Z,98842.81
2023-02-17T11:10:17.247Z,98825.50
2023-02-17T11:15:22.187Z,98790.31
2023-02-17T11:20:23.720Z,98810.66
2023-02-17T11:25:28.807Z,98767.66
2023-02-17T11:30:34.879Z,98790.75
2023-02-17T11:35:36.438Z,98785.84
2023-02-17T11:40:38.405Z,98771.41
2023-02-17T11:46:02.766Z,98765.22
2023-02-17T11:51:10.053Z,98756.59
2023-02-17T11:56:18.028Z,98658.69
2023-02-17T12:01:28.488Z,98747.38
2023-02-17T12:06:39.934Z,98739.03
2023-02-17T12:11:59.281Z,98728.09
2023-02-17T12:17:47.868Z,98712.63
2023-02-17T12:23:44.639Z,98692.63
2023-02-17T12:29:25.455Z,98686.59
2023-02-17T12:34:34.882Z,98688.56
2023-02-17T12:39:52.091Z,98675.91
2023-02-17T12:45:03.588Z,98652.75
2023-02-17T12:50:28.573Z,98658.34
2023-02-17T12:55:48.522Z,98645.69
2023-02-17T13:00:59.865Z,98646.38
2023-02-17T13:06:01.502Z,98643.00
2023-02-17T13:11:12.131Z,98644.59
2023-02-17T13:16:14.796Z,98630.53
2023-02-17T13:21:24.820Z,98626.91
2023-02-17T13:26:33.534Z,98623.50
2023-02-17T13:31:52.822Z,98615.09
2023-02-17T13:36:55.091Z,98632.94
2023-02-17T13:41:59.344Z,98623.09
2023-02-17T13:47:06.245Z,98632.09
2023-02-17T13:52:11.199Z,98625.38
2023-02-17T13:57:42.718Z,98587.84
2023-02-17T14:02:50.734Z,98626.94
2023-02-17T14:07:56.683Z,98637.50
2023-02-17T14:12:58.638Z,98639.69
2023-02-17T14:18:00.302Z,98644.81
2023-02-17T14:23:14.491Z,98647.34
2023-02-17T14:28:27.153Z,98630.41
2023-02-17T14:33:29.942Z,98626.91
2023-02-17T14:38:37.641Z,98638.38
2023-02-17T14:43:39.292Z,98640.44
2023-02-17T14:48:41.006Z,98616.69
2023-02-17T14:53:42.799Z,98615.59
2023-02-17T14:58:44.477Z,98624.47
2023-02-17T15:03:46.313Z,98610.59
2023-02-17T15:08:51.847Z,98617.41
2023-02-17T15:13:54.489Z,98627.53
2023-02-17T15:18:56.318Z,98613.75
2023-02-17T15:24:00.468Z,98649.53
2023-02-17T15:29:02.197Z,98646.59
2023-02-17T15:34:09.519Z,98657.44
2023-02-17T15:39:17.832Z,98659.13
2023-02-17T15:44:40.928Z,98649.56
2023-02-17T15:49:43.172Z,98645.06
2023-02-17T15:54:46.306Z,98632.03
2023-02-17T15:59:48.126Z,98651.03
2023-02-17T16:04:49.984Z,98646.16
2023-02-17T16:09:52.105Z,98648.13
2023-02-17T16:14:54.733Z,98654.16
2023-02-17T16:19:56.579Z,98640.78
2023-02-17T16:24:58.203Z,98650.25
2023-02-17T16:30:01.494Z,98664.34
2023-02-17T16:35:03.216Z,98662.88
2023-02-17T16:40:17.131Z,98653.59
2023-02-17T16:45:21.986Z,98671.75
2023-02-17T16:50:29.140Z,98660.50
2023-02-17T16:55:33.495Z,98655.25
2023-02-17T17:00:36.876Z,98646.09
2023-02-17T17:05:39.578Z,98645.13
2023-02-17T17:10:41.938Z,98636.00
2023-02-17T17:15:45.301Z,98639.38
2023-02-17T17:20:47.217Z,98639.03
2023-02-17T17:25:48.926Z,98629.94
2023-02-17T17:30:50.545Z,98638.41
2023-02-17T17:35:53.526Z,98636.31
2023-02-17T17:40:57.015Z,98648.34
2023-02-17T17:45:58.911Z,98629.84
2023-02-17T17:51:00.631Z,98611.00
2023-02-17T17:56:02.344Z,98631.47
2023-02-17T18:01:04.059Z,98636.63
2023-02-17T18:06:08.518Z,98637.13
2023-02-17T18:11:11.707Z,98630.88
2023-02-17T18:16:13.942Z,98607.84
2023-02-17T18:21:16.029Z,98614.53
2023-02-17T18:26:19.299Z,98616.25
2023-02-17T18:31:21.612Z,98603.25
2023-02-17T18:36:25.720Z,98597.53
2023-02-17T18:41:29.551Z,98593.56
2023-02-17T18:46:33.199Z,98582.59
2023-02-17T18:51:35.322Z,98566.06
2023-02-17T18:56:37.640Z,98571.25
2023-02-17T19:01:41.283Z,98553.38
2023-02-17T19:06:43.008Z,98565.03
2023-02-17T19:11:44.821Z,98562.22
2023-02-17T19:16:46.558Z,98560.19
2023-02-17T19:21:48.792Z,98569.13
2023-02-17T19:26:51.230Z,98581.63
2023-02-17T19:31:53.303Z,98568.13
2023-02-17T19:36:55.983Z,98575.50
2023-02-17T19:41:57.624Z,98585.00
2023-02-17T19:46:59.711Z,98579.91
2023-02-17T19:52:01.718Z,98570.88
2023-02-17T19:57:03.782Z,98582.59
2023-02-17T20:02:05.562Z,98603.50
2023-02-17T20:07:07.368Z,98607.91
2023-02-17T20:12:09.314Z,98616.81
2023-02-17T20:17:12.252Z,98623.03
2023-02-17T20:22:14.059Z,98636.16
2023-02-17T20:27:15.857Z,98625.00
2023-02-17T20:32:17.564Z,98613.53
2023-02-17T20:37:19.632Z,98606.97
2023-02-17T20:42:21.528Z,98601.97
2023-02-17T20:47:23.438Z,98620.47
2023-02-17T20:52:25.236Z,98613.41
2023-02-17T20:57:27.559Z,98593.41
2023-02-17T21:02:30.093Z,98607.44
2023-02-17T21:07:32.120Z,98590.09
2023-02-17T21:12:33.880Z,98587.06
2023-02-17T21:17:36.284Z,98585.75
2023-02-17T21:22:38.532Z,98572.22
2023-02-17T21:27:40.178Z,98576.59
2023-02-17T21:32:42.551Z,98583.72
2023-02-17T21:37:44.225Z,98591.56
2023-02-17T21:43:04.589Z,98589.09
2023-02-17T21:48:07.617Z,98591.00
2023-02-17T21:53:09.282Z,98599.97
2023-02-17T21:58:10.889Z,98606.34
2023-02-17T22:03:12.492Z,98621.44
2023-02-17T22:08:14.210Z,98638.53
2023-02-17T22:13:15.828Z,98630.75
2023-02-17T22:18:17.450Z,98631.47
